Time;durP1;ratioP1;P1;durP2;ratioP2;P2;SDS_P1;SDS_P2;PMS_P1;PMS_P2;Temp;Humidity;BMP_temperature;BMP_pressure;BME280_temperature;BME280_humidity;BME280_pressure;Samples;Min_cycle;Max_cycle;Signal;HPM_P1;HPM_P2
2023/03/09 00:01:26;;;;;;;0.10;0.10;;;11.60;99.90;;;;;;5103207;28;20039;-76
2023/03/09 00:03:54;;;;;;;0.20;0.20;;;12.10;99.90;;;;;;5102522;28;20111;-76
2023/03/09 00:06:21;;;;;;;3.65;3.33;;;11.70;99.90;;;;;;5102703;28;20213;-76
2023/03/09 00:08:47;;;;;;;0.10;0.10;;;12.20;99.90;;;;;;5102720;28;20336;-76
2023/03/09 00:11:14;;;;;;;0.15;0.15;;;12.10;99.90;;;;;;5102432;28;20012;-76
2023/03/09 00:13:40;;;;;;;0.17;0.17;;;11.80;99.90;;;;;;5102650;28;20016;-76
2023/03/09 00:16:24;;;;;;;0.13;0.13;;;11.80;99.90;;;;;;5100205;28;20073;-76
2023/03/09 00:18:53;;;;;;;0.10;0.10;;;11.40;99.90;;;;;;5102702;28;20311;-76
2023/03/09 00:21:34;;;;;;;0.20;0.20;;;12.00;99.90;;;;;;5105758;28;20483;-76
2023/03/09 00:24:01;;;;;;;0.10;0.10;;;12.00;99.90;;;;;;5105280;28;20161;-76
2023/03/09 00:26:27;;;;;;;0.20;0.20;;;11.80;99.90;;;;;;5109459;28;20016;-76
2023/03/09 00:28:53;;;;;;;0.10;0.10;;;;;;;;;;5111407;28;20258;-76
2023/03/09 00:31:19;;;;;;;0.20;0.20;;;11.90;99.90;;;;;;5110566;28;20064;-76
2023/03/09 00:33:49;;;;;;;0.10;0.10;;;11.90;99.90;;;;;;5108905;28;20023;-75
2023/03/09 00:36:16;;;;;;;0.20;0.20;;;11.90;99.90;;;;;;5090804;28;20091;-76
2023/03/09 00:38:43;;;;;;;0.20;0.20;;;11.90;99.90;;;;;;5114423;28;20048;-76
2023/03/09 00:41:10;;;;;;;0.20;0.20;;;12.00;99.90;;;;;;5096698;28;20091;-77
2023/03/09 00:43:36;;;;;;;0.15;0.15;;;12.00;99.90;;;;;;5117277;28;20027;-76
2023/03/09 00:46:06;;;;;;;0.20;0.20;;;12.10;99.90;;;;;;5118541;28;20020;-76
2023/03/09 00:48:32;;;;;;;0.20;0.20;;;12.00;99.90;;;;;;5116685;28;20073;-76
2023/03/09 00:50:58;;;;;;;0.20;0.20;;;12.10;99.90;;;;;;5110823;28;20257;-78
2023/03/09 00:53:27;;;;;;;0.20;0.20;;;11.80;99.90;;;;;;5111002;28;20026;-76
2023/03/09 00:56:01;;;;;;;0.10;0.10;;;12.00;99.90;;;;;;5110143;28;20319;-76
2023/03/09 00:58:27;;;;;;;0.10;0.10;;;13.80;99.90;;;;;;5076768;28;20035;-76
2023/03/09 01:00:53;;;;;;;0.10;0.10;;;12.10;99.90;;;;;;5110705;28;20079;-76
2023/03/09 01:03:42;;;;;;;0.20;0.20;;;12.10;99.90;;;;;;5092657;28;20063;-77
2023/03/09 01:06:09;;;;;;;0.20;0.20;;;12.20;99.90;;;;;;5114166;28;20035;-76
2023/03/09 01:08:36;;;;;;;0.13;0.13;;;12.10;99.90;;;;;;5092331;28;20085;-76
2023/03/09 01:11:08;;;;;;;0.13;0.13;;;12.10;99.90;;;;;;5065758;28;20661;-76
2023/03/09 01:13:35;;;;;;;0.20;0.20;;;12.10;99.90;;;;;;5109849;28;20069;-76
2023/03/09 01:16:01;;;;;;;0.20;0.20;;;12.10;99.90;;;;;;5112737;28;20320;-76
2023/03/09 01:18:27;;;;;;;0.20;0.20;;;12.10;99.90;;;;;;5107080;28;20020;-76
2023/03/09 01:20:53;;;;;;;0.20;0.20;;;12.10;99.90;;;;;;5109040;28;20089;-77
2023/03/09 01:23:19;;;;;;;0.15;0.15;;;12.10;99.90;;;;;;5106938;28;20070;-77
2023/03/09 01:25:45;;;;;;;0.20;0.20;;;12.10;99.90;;;;;;5109350;28;20102;-76
2023/03/09 01:28:12;;;;;;;0.20;0.20;;;12.10;99.90;;;;;;5110988;28;20051;-76
2023/03/09 01:30:38;;;;;;;0.20;0.20;;;12.10;99.90;;;;;;5104242;28;20026;-76
2023/03/09 01:33:05;;;;;;;0.20;0.20;;;12.10;99.90;;;;;;5113492;28;20418;-76
2023/03/09 01:35:32;;;;;;;0.20;0.20;;;12.10;99.90;;;;;;5114057;28;20029;-76
2023/03/09 01:37:58;;;;;;;0.10;0.10;;;12.00;99.90;;;;;;5110441;28;20074;-76
2023/03/09 01:40:25;;;;;;;0.10;0.10;;;12.00;99.90;;;;;;5113281;28;20035;-76
2023/03/09 01:43:20;;;;;;;0.20;0.20;;;12.20;99.90;;;;;;5113494;28;20141;-76
2023/03/09 01:45:48;;;;;;;;;;;12.10;99.90;;;;;;5112160;28;20031;-75
2023/03/09 01:48:14;;;;;;;0.10;0.10;;;11.90;99.90;;;;;;5110461;28;20009;-75
2023/03/09 01:50:41;;;;;;;0.10;0.10;;;12.10;99.90;;;;;;5111947;28;20070;-76
2023/03/09 01:53:17;;;;;;;0.20;0.20;;;12.20;99.90;;;;;;5115195;28;20058;-75
2023/03/09 01:55:48;;;;;;;0.20;0.20;;;12.20;99.90;;;;;;5115396;28;20028;-78
2023/03/09 01:58:34;;;;;;;0.30;0.30;;;12.20;99.90;;;;;;5116431;28;20038;-75
2023/03/09 02:01:00;;;;;;;0.10;0.10;;;12.20;99.90;;;;;;5109874;28;20088;-77
2023/03/09 02:03:33;;;;;;;0.15;0.15;;;12.10;99.90;;;;;;5110642;28;20027;-76
2023/03/09 02:06:06;;;;;;;0.13;0.13;;;12.20;99.90;;;;;;5105724;28;20067;-76
2023/03/09 02:08:32;;;;;;;0.20;0.20;;;12.20;99.90;;;;;;5090697;28;20114;-76
2023/03/09 02:11:07;;;;;;;0.20;0.20;;;12.10;99.90;;;;;;5106764;28;20538;-76
2023/03/09 02:13:48;;;;;;;0.20;0.20;;;12.20;99.90;;;;;;5087291;28;20016;-75
2023/03/09 02:16:14;;;;;;;0.20;0.20;;;12.20;99.90;;;;;;5108023;28;20110;-76
2023/03/09 02:18:40;;;;;;;0.20;0.20;;;12.20;99.90;;;;;;5104410;28;20031;-75
2023/03/09 02:21:39;;;;;;;0.20;0.20;;;12.20;99.90;;;;;;5106372;28;20027;-78
2023/03/09 02:24:16;;;;;;;0.10;0.10;;;12.10;99.90;;;;;;5106155;28;20035;-75
2023/03/09 02:26:50;;;;;;;0.20;0.20;;;12.10;99.90;;;;;;5107110;28;20032;-75
2023/03/09 02:29:16;;;;;;;0.10;0.10;;;12.20;99.90;;;;;;5111398;28;20032;-76
2023/03/09 02:31:42;;;;;;;0.20;0.20;;;12.10;99.90;;;;;;5110737;28;20032;-76
2023/03/09 02:34:09;;;;;;;0.17;0.17;;;12.20;99.90;;;;;;5110967;28;20034;-75
2023/03/09 02:36:35;;;;;;;0.20;0.20;;;12.20;99.90;;;;;;5110817;28;20035;-76
2023/03/09 02:39:24;;;;;;;0.20;0.20;;;12.20;99.90;;;;;;5106076;28;20027;-76
2023/03/09 02:41:53;;;;;;;0.10;0.10;;;12.10;99.90;;;;;;5110846;28;20020;-75
2023/03/09 02:44:21;;;;;;;0.20;0.20;;;12.20;99.90;;;;;;5094680;28;20037;-76
2023/03/09 02:46:47;;;;;;;0.20;0.20;;;12.20;99.90;;;;;;5108354;28;20023;-77
2023/03/09 02:49:12;;;;;;;0.20;0.20;;;12.20;99.90;;;;;;5106682;28;20020;-76
2023/03/09 02:51:38;;;;;;;0.10;0.10;;;12.10;99.90;;;;;;5111685;28;20020;-77
2023/03/09 02:54:04;;;;;;;0.20;0.20;;;12.00;99.90;;;;;;5110635;28;20410;-74
2023/03/09 02:56:30;;;;;;;0.10;0.10;;;12.00;99.90;;;;;;5111727;28;20046;-75
2023/03/09 02:58:55;;;;;;;0.10;0.10;;;12.00;99.90;;;;;;5110948;28;20028;-76
2023/03/09 03:01:21;;;;;;;0.10;0.10;;;12.00;99.90;;;;;;5110420;28;20030;-76
2023/03/09 03:03:47;;;;;;;0.13;0.13;;;12.00;99.90;;;;;;5112884;28;20228;-75
2023/03/09 03:06:12;;;;;;;0.20;0.20;;;12.00;99.90;;;;;;5107554;28;20391;-76
2023/03/09 03:08:38;;;;;;;0.20;0.20;;;12.00;99.90;;;;;;5106201;28;20068;-76
2023/03/09 03:11:05;;;;;;;0.20;0.20;;;12.10;99.90;;;;;;5109884;28;20023;-75
2023/03/09 03:13:31;;;;;;;0.40;0.40;;;12.10;99.90;;;;;;5105567;28;20038;-76
2023/03/09 03:15:59;;;;;;;0.10;0.10;;;11.80;99.90;;;;;;5108258;28;20024;-76
2023/03/09 03:18:25;;;;;;;0.20;0.20;;;12.10;99.90;;;;;;5108996;28;20019;-75
2023/03/09 03:20:51;;;;;;;0.10;0.10;;;12.00;99.90;;;;;;5109934;28;20308;-77
2023/03/09 03:23:16;;;;;;;0.20;0.20;;;12.00;99.90;;;;;;5109520;28;20055;-75
2023/03/09 03:25:43;;;;;;;0.20;0.20;;;12.10;99.90;;;;;;5109310;28;20024;-76
2023/03/09 03:28:09;;;;;;;0.20;0.20;;;12.00;99.90;;;;;;5087808;28;20019;-77
2023/03/09 03:30:35;;;;;;;0.20;0.20;;;12.00;99.90;;;;;;5107015;28;20020;-76
2023/03/09 03:33:00;;;;;;;0.20;0.20;;;12.00;99.90;;;;;;5102386;28;20020;-76
2023/03/09 03:35:26;;;;;;;0.20;0.20;;;12.00;99.90;;;;;;5106776;28;20437;-76
2023/03/09 03:37:52;;;;;;;0.20;0.20;;;12.00;99.90;;;;;;5104150;28;20067;-75
2023/03/09 03:40:19;;;;;;;0.20;0.20;;;11.90;99.90;;;;;;5103595;28;20035;-75
2023/03/09 03:42:45;;;;;;;0.40;0.40;;;12.30;99.90;;;;;;5105112;28;20028;-75
2023/03/09 03:45:10;;;;;;;0.17;0.17;;;11.90;99.90;;;;;;5108505;28;20016;-75
2023/03/09 03:47:46;;;;;;;0.15;0.15;;;11.90;99.90;;;;;;5110253;28;20039;-77
2023/03/09 03:50:12;;;;;;;0.20;0.20;;;12.00;99.90;;;;;;5105956;28;20024;-75
2023/03/09 03:52:39;;;;;;;0.20;0.20;;;11.50;99.90;;;;;;5086064;28;20026;-75
2023/03/09 03:55:07;;;;;;;0.20;0.20;;;12.00;99.90;;;;;;5113602;28;20087;-76
2023/03/09 03:57:38;;;;;;;0.20;0.20;;;12.00;99.90;;;;;;5115438;28;20262;-76
2023/03/09 04:00:10;;;;;;;0.10;0.10;;;12.00;99.90;;;;;;5115173;28;20055;-76
2023/03/09 04:02:38;;;;;;;0.10;0.10;;;12.00;99.90;;;;;;5114250;28;20012;-76
2023/03/09 04:05:05;;;;;;;0.20;0.20;;;12.00;99.90;;;;;;5114134;28;20455;-75
2023/03/09 04:07:32;;;;;;;0.10;0.10;;;11.90;99.90;;;;;;5114354;28;20108;-76
2023/03/09 04:09:59;;;;;;;0.10;0.10;;;11.90;99.90;;;;;;5114077;28;20051;-75
2023/03/09 04:12:25;;;;;;;0.10;0.10;;;12.00;99.90;;;;;;5115223;28;20336;-76
2023/03/09 04:14:52;;;;;;;0.20;0.20;;;12.00;99.90;;;;;;5113750;28;20042;-75
2023/03/09 04:17:18;;;;;;;0.20;0.20;;;10.80;99.90;;;;;;5113701;28;20034;-76
2023/03/09 04:19:50;;;;;;;0.20;0.20;;;11.90;99.90;;;;;;5113717;28;20041;-76
2023/03/09 04:22:17;;;;;;;0.20;0.20;;;11.90;99.90;;;;;;5113124;28;20031;-75
2023/03/09 04:24:43;;;;;;;0.10;0.10;;;11.90;99.90;;;;;;5111176;28;20047;-76
2023/03/09 04:27:09;;;;;;;1.20;1.20;;;12.00;99.90;;;;;;5112982;28;20020;-76
2023/03/09 04:29:41;;;;;;;0.20;0.20;;;12.00;99.90;;;;;;5113324;28;20068;-76
2023/03/09 04:32:07;;;;;;;0.55;0.55;;;12.00;99.90;;;;;;5113073;28;20016;-75
2023/03/09 04:34:33;;;;;;;0.20;0.20;;;12.00;99.90;;;;;;5112305;28;20292;-75
2023/03/09 04:36:58;;;;;;;0.20;0.20;;;12.10;99.90;;;;;;5111637;28;20261;-76
2023/03/09 04:39:25;;;;;;;0.20;0.20;;;12.00;99.90;;;;;;5110808;28;20020;-76
2023/03/09 04:41:50;;;;;;;0.10;0.10;;;12.00;99.90;;;;;;5111179;28;20028;-76
2023/03/09 04:44:17;;;;;;;0.20;0.20;;;12.10;99.90;;;;;;5109992;28;20034;-76
2023/03/09 04:46:44;;;;;;;0.10;0.10;;;12.10;99.90;;;;;;5092498;28;20126;-76
2023/03/09 04:49:14;;;;;;;0.20;0.20;;;11.90;99.90;;;;;;5109805;28;20035;-76
2023/03/09 04:51:40;;;;;;;0.15;0.15;;;12.10;99.90;;;;;;5108835;28;20023;-76
2023/03/09 04:54:06;;;;;;;0.10;0.10;;;12.10;99.90;;;;;;5108483;28;20023;-75
2023/03/09 04:56:31;;;;;;;0.20;0.20;;;12.10;99.90;;;;;;5107740;28;20047;-76
2023/03/09 04:58:57;;;;;;;0.20;0.20;;;12.10;99.90;;;;;;5107729;28;20081;-75
2023/03/09 05:01:23;;;;;;;0.20;0.20;;;12.00;99.90;;;;;;5106783;28;20494;-75
2023/03/09 05:03:50;;;;;;;0.20;0.20;;;12.10;99.90;;;;;;5105765;28;20434;-75
2023/03/09 05:06:15;;;;;;;0.20;0.20;;;12.10;99.90;;;;;;5107805;28;20509;-76
2023/03/09 05:08:44;;;;;;;0.13;0.13;;;12.00;99.90;;;;;;5107249;28;20224;-76
2023/03/09 05:11:09;;;;;;;0.20;0.20;;;12.00;99.90;;;;;;5111168;28;20023;-76
2023/03/09 05:13:35;;;;;;;0.10;0.10;;;12.00;99.90;;;;;;5111695;28;20051;-76
2023/03/09 05:16:07;;;;;;;0.20;0.20;;;12.00;99.90;;;;;;5112805;28;20563;-76
2023/03/09 05:18:34;;;;;;;0.20;0.20;;;12.00;99.90;;;;;;5114352;28;20019;-77
2023/03/09 05:21:07;;;;;;;0.10;0.10;;;12.00;99.90;;;;;;5118375;28;20087;-78
2023/03/09 05:23:36;;;;;;;0.10;0.10;;;11.90;99.90;;;;;;5097785;28;20035;-76
2023/03/09 05:26:06;;;;;;;0.20;0.20;;;12.00;99.90;;;;;;5110659;28;20280;-75
2023/03/09 05:28:33;;;;;;;0.20;0.20;;;12.00;99.90;;;;;;5109123;28;20296;-75
2023/03/09 05:30:59;;;;;;;0.10;0.10;;;12.00;99.90;;;;;;5109708;28;20024;-75
2023/03/09 05:33:25;;;;;;;0.10;0.10;;;12.00;99.90;;;;;;5109416;28;20075;-75
2023/03/09 05:35:51;;;;;;;0.20;0.20;;;11.90;99.90;;;;;;5110647;28;20023;-76
2023/03/09 05:38:17;;;;;;;0.20;0.20;;;11.90;99.90;;;;;;5106890;28;20019;-76
2023/03/09 05:40:43;;;;;;;0.20;0.20;;;11.90;99.90;;;;;;5090528;28;20034;-77
2023/03/09 05:43:09;;;;;;;0.20;0.20;;;11.90;99.90;;;;;;5109578;28;20045;-76
2023/03/09 05:45:35;;;;;;;0.20;0.20;;;12.00;99.90;;;;;;5111714;28;20024;-75
2023/03/09 05:48:01;;;;;;;0.20;0.20;;;12.00;99.90;;;;;;5109561;28;20389;-75
2023/03/09 05:50:27;;;;;;;0.20;0.20;;;12.00;99.90;;;;;;5112769;28;20581;-76
2023/03/09 05:52:54;;;;;;;0.10;0.10;;;12.00;99.90;;;;;;5109344;28;20023;-77
2023/03/09 05:55:21;;;;;;;0.20;0.20;;;12.00;99.90;;;;;;5113088;28;20026;-76
2023/03/09 05:57:47;;;;;;;0.17;0.17;;;12.00;99.90;;;;;;5109745;28;20025;-76
2023/03/09 06:00:15;;;;;;;0.20;0.20;;;;;;;;;;5108297;28;20007;-76
2023/03/09 06:02:41;;;;;;;0.20;0.20;;;12.10;99.90;;;;;;5108402;28;20028;-76
2023/03/09 06:05:09;;;;;;;0.10;0.10;;;12.10;99.90;;;;;;5106223;28;20036;-75
2023/03/09 06:07:36;;;;;;;0.20;0.20;;;12.20;99.90;;;;;;5108063;28;20096;-76
2023/03/09 06:10:05;;;;;;;0.13;0.13;;;12.20;99.90;;;;;;5109385;28;20240;-76
2023/03/09 06:12:31;;;;;;;0.20;0.20;;;12.30;99.90;;;;;;5109926;28;20023;-76
2023/03/09 06:14:57;;;;;;;0.20;0.20;;;12.30;99.90;;;;;;5107956;28;20101;-75
2023/03/09 06:17:26;;;;;;;0.20;0.20;;;12.30;99.90;;;;;;5107143;28;20422;-76
2023/03/09 06:19:53;;;;;;;0.17;0.17;;;12.30;99.90;;;;;;5107522;28;20019;-76
2023/03/09 06:22:20;;;;;;;0.20;0.20;;;12.30;99.90;;;;;;5106346;28;20031;-75
2023/03/09 06:24:45;;;;;;;0.20;0.20;;;12.40;99.90;;;;;;5106653;28;20338;-76
2023/03/09 06:27:14;;;;;;;0.30;0.30;;;12.40;99.90;;;;;;5103635;28;20020;-77
2023/03/09 06:29:40;;;;;;;0.10;0.10;;;12.40;99.90;;;;;;5111893;28;20039;-77
2023/03/09 06:32:08;;;;;;;0.32;0.32;;;12.40;99.90;;;;;;5108325;28;20399;-77
2023/03/09 06:34:33;;;;;;;0.20;0.20;;;12.40;99.90;;;;;;5109365;28;20034;-76
2023/03/09 06:37:04;;;;;;;0.15;0.15;;;12.40;99.90;;;;;;5108426;28;20059;-75
2023/03/09 06:39:30;;;;;;;0.10;0.10;;;12.50;99.90;;;;;;5106511;28;20098;-75
2023/03/09 06:41:56;;;;;;;0.30;0.30;;;12.50;99.90;;;;;;5102019;28;20119;-76
2023/03/09 06:44:21;;;;;;;0.20;0.20;;;12.50;99.90;;;;;;5105717;28;20048;-75
2023/03/09 06:46:53;;;;;;;0.20;0.20;;;9.70;99.90;;;;;;5108631;28;20058;-75
2023/03/09 06:49:22;;;;;;;0.20;0.20;;;12.60;99.90;;;;;;5108838;28;20027;-78
2023/03/09 06:51:48;;;;;;;0.17;0.17;;;12.60;99.90;;;;;;5108054;28;20023;-76
2023/03/09 06:54:14;;;;;;;0.13;0.13;;;12.60;99.90;;;;;;5104424;28;20073;-76
2023/03/09 06:56:41;;;;;;;0.20;0.20;;;13.40;99.90;;;;;;5085696;28;20047;-75
2023/03/09 06:59:06;;;;;;;0.20;0.20;;;12.60;99.90;;;;;;5106333;28;20032;-75
2023/03/09 07:01:33;;;;;;;0.20;0.20;;;12.60;99.90;;;;;;5104036;28;20032;-76
2023/03/09 07:04:01;;;;;;;0.20;0.20;;;12.60;99.90;;;;;;5087018;28;20043;-79
2023/03/09 07:06:27;;;;;;;0.20;0.20;;;12.60;99.90;;;;;;5108772;28;20048;-76
2023/03/09 07:08:53;;;;;;;0.20;0.20;;;12.70;99.90;;;;;;5113109;28;20028;-75
2023/03/09 07:11:19;;;;;;;0.17;0.17;;;12.80;99.90;;;;;;5113544;28;20406;-76
2023/03/09 07:13:45;;;;;;;0.20;0.20;;;12.80;99.90;;;;;;5111316;28;20026;-77
2023/03/09 07:16:10;;;;;;;0.20;0.20;;;12.90;99.90;;;;;;5112897;28;20020;-78
2023/03/09 07:18:37;;;;;;;0.20;0.20;;;13.00;99.90;;;;;;5114101;28;20479;-76
2023/03/09 07:21:03;;;;;;;0.20;0.20;;;13.00;99.90;;;;;;5108721;28;20061;-76
2023/03/09 07:23:31;;;;;;;0.10;0.10;;;13.10;99.90;;;;;;5108489;28;20054;-81
2023/03/09 07:26:03;;;;;;;0.10;0.10;;;13.20;99.90;;;;;;5104737;28;20016;-77
2023/03/09 07:28:29;;;;;;;0.15;0.15;;;13.30;99.90;;;;;;5104706;28;20115;-76
2023/03/09 07:30:55;;;;;;;0.20;0.20;;;13.30;99.90;;;;;;5105762;28;20024;-76
2023/03/09 07:33:28;;;;;;;0.10;0.10;;;13.40;99.90;;;;;;5107382;28;20028;-76
2023/03/09 07:35:56;;;;;;;0.10;0.10;;;13.40;99.90;;;;;;5109579;28;20032;-76
2023/03/09 07:38:21;;;;;;;0.15;0.15;;;13.40;99.90;;;;;;5107543;28;20158;-76
2023/03/09 07:40:48;;;;;;;0.20;0.20;;;13.40;99.90;;;;;;5114723;28;20098;-76
2023/03/09 07:43:14;;;;;;;0.20;0.20;;;13.40;99.90;;;;;;5111542;28;20027;-76
2023/03/09 07:45:42;;;;;;;0.20;0.20;;;13.40;99.90;;;;;;5105706;28;20015;-76
2023/03/09 07:48:11;;;;;;;0.20;0.20;;;13.30;99.90;;;;;;5091262;28;20424;-80
2023/03/09 07:50:40;;;;;;;0.20;0.20;;;13.20;99.90;;;;;;5110276;28;20036;-77
2023/03/09 07:53:09;;;;;;;0.20;0.20;;;13.10;99.90;;;;;;5111834;28;20049;-78
2023/03/09 07:55:38;;;;;;;0.10;0.10;;;11.80;99.90;;;;;;5115733;28;20026;-76
2023/03/09 07:58:06;;;;;;;0.20;0.20;;;13.20;99.90;;;;;;5112263;28;20020;-77
2023/03/09 08:00:34;;;;;;;0.13;0.13;;;13.10;99.90;;;;;;5113350;28;20175;-78
2023/03/09 08:03:18;;;;;;;0.13;0.13;;;13.20;99.90;;;;;;5115018;28;20039;-77
2023/03/09 08:05:45;;;;;;;0.10;0.10;;;13.80;99.90;;;;;;5112504;28;20115;-76
2023/03/09 08:08:12;;;;;;;0.20;0.20;;;13.10;99.90;;;;;;5113262;28;20030;-76
2023/03/09 08:10:40;;;;;;;0.20;0.20;;;13.20;99.90;;;;;;5101899;28;20032;-75
2023/03/09 08:13:05;;;;;;;0.20;0.20;;;13.20;99.90;;;;;;5099532;28;20016;-76
2023/03/09 08:15:31;;;;;;;0.20;0.20;;;13.30;99.90;;;;;;5099674;28;20335;-76
2023/03/09 08:17:57;;;;;;;0.17;0.17;;;13.30;99.90;;;;;;5098031;28;20095;-76
2023/03/09 08:20:24;;;;;;;0.20;0.20;;;;;;;;;;5098998;28;20152;-76
2023/03/09 08:22:50;;;;;;;0.15;0.15;;;13.30;99.90;;;;;;5099427;28;20384;-76
2023/03/09 08:25:15;;;;;;;0.10;0.10;;;13.40;99.90;;;;;;5096976;28;20027;-77
2023/03/09 08:27:46;;;;;;;1.23;1.23;;;13.50;99.90;;;;;;5097884;28;20289;-76
2023/03/09 08:30:12;;;;;;;0.20;0.20;;;13.50;99.90;;;;;;5100424;28;20546;-76
2023/03/09 08:32:39;;;;;;;0.20;0.20;;;14.30;99.90;;;;;;5100079;28;20027;-75
2023/03/09 08:35:05;;;;;;;0.20;0.20;;;13.60;99.90;;;;;;5100721;28;20024;-78
2023/03/09 08:37:31;;;;;;;0.20;0.20;;;13.60;99.90;;;;;;5100335;28;20244;-76
2023/03/09 08:39:56;;;;;;;0.20;0.20;;;13.60;99.90;;;;;;5105636;28;20071;-76
2023/03/09 08:42:22;;;;;;;0.20;0.20;;;13.60;99.90;;;;;;5115436;28;20051;-76
2023/03/09 08:44:48;;;;;;;0.20;0.20;;;13.60;99.90;;;;;;5116393;28;20039;-78
2023/03/09 08:47:17;;;;;;;0.20;0.20;;;13.70;99.90;;;;;;5121044;28;20030;-76
2023/03/09 08:49:43;;;;;;;0.20;0.20;;;13.60;99.90;;;;;;5123351;28;20039;-77
2023/03/09 08:52:09;;;;;;;0.10;0.10;;;13.70;99.90;;;;;;5124516;28;20012;-79
2023/03/09 08:54:38;;;;;;;0.20;0.20;;;13.30;99.90;;;;;;5114020;28;20051;-77
2023/03/09 08:57:04;;;;;;;0.20;0.20;;;;;;;;;;5114061;28;20368;-82
2023/03/09 08:59:31;;;;;;;0.20;0.20;;;13.80;99.90;;;;;;5102464;28;20027;-79
2023/03/09 09:01:57;;;;;;;0.10;0.10;;;;;;;;;;5103154;28;20038;-77
2023/03/09 09:04:24;;;;;;;0.20;0.20;;;13.90;99.90;;;;;;5108047;28;20397;-76
2023/03/09 09:06:51;;;;;;;0.20;0.20;;;14.40;99.90;;;;;;5091817;28;20031;-76
2023/03/09 09:09:18;;;;;;;0.13;0.13;;;13.80;99.90;;;;;;5110467;28;20024;-76
2023/03/09 09:11:44;;;;;;;0.20;0.20;;;13.70;99.90;;;;;;5092619;28;20047;-75
2023/03/09 09:14:10;;;;;;;0.20;0.20;;;13.90;99.90;;;;;;5107829;28;20031;-76
2023/03/09 09:16:36;;;;;;;0.15;0.15;;;14.00;99.90;;;;;;5102061;28;20094;-76
2023/03/09 09:19:02;;;;;;;0.20;0.20;;;14.00;99.90;;;;;;5101396;28;20020;-76
2023/03/09 09:21:28;;;;;;;0.20;0.20;;;14.10;99.90;;;;;;5097837;28;20027;-77
2023/03/09 09:23:54;;;;;;;0.20;0.20;;;14.20;99.90;;;;;;5100935;28;20059;-76
2023/03/09 09:26:20;;;;;;;0.20;0.20;;;14.20;99.90;;;;;;5100743;28;20269;-76
2023/03/09 09:28:46;;;;;;;0.10;0.10;;;14.10;99.90;;;;;;5100112;28;20055;-77
2023/03/09 09:31:16;;;;;;;0.20;0.20;;;14.40;99.90;;;;;;5100652;28;20368;-76
2023/03/09 09:33:42;;;;;;;0.20;0.20;;;14.10;99.90;;;;;;5100241;28;20028;-76
2023/03/09 09:36:11;;;;;;;0.20;0.20;;;14.20;99.90;;;;;;5099737;28;20026;-76
2023/03/09 09:38:38;;;;;;;0.20;0.20;;;14.20;99.90;;;;;;5099607;28;20044;-76
2023/03/09 09:41:44;;;;;;;0.10;0.10;;;14.30;99.90;;;;;;5099263;28;20058;-76
2023/03/09 09:44:18;;;;;;;0.20;0.20;;;14.30;99.90;;;;;;5098141;28;20067;-76
2023/03/09 09:46:46;;;;;;;0.20;0.20;;;14.50;99.90;;;;;;5099516;28;20228;-76
2023/03/09 09:49:19;;;;;;;0.28;0.28;;;14.60;99.90;;;;;;5099870;28;20023;-76
2023/03/09 09:52:00;;;;;;;0.20;0.20;;;14.80;99.90;;;;;;5097011;28;20088;-76
2023/03/09 09:54:35;;;;;;;1.38;1.38;;;14.90;99.90;;;;;;5097899;28;20280;-76
2023/03/09 09:57:17;;;;;;;0.10;0.10;;;15.00;99.90;;;;;;5099377;28;20035;-77
2023/03/09 10:00:06;;;;;;;0.10;0.10;;;15.10;99.90;;;;;;5100042;28;20047;-77
2023/03/09 10:02:35;;;;;;;0.10;0.10;;;15.70;99.70;;;;;;5015940;28;20029;-76
2023/03/09 10:05:19;;;;;;;0.20;0.20;;;15.50;99.40;;;;;;5015397;28;20567;-76
2023/03/09 10:07:45;;;;;;;0.20;0.20;;;15.70;99.20;;;;;;5015551;28;20041;-76
2023/03/09 10:10:17;;;;;;;0.20;0.20;;;15.90;97.50;;;;;;4998115;28;20116;-76
2023/03/09 10:12:44;;;;;;;0.20;0.20;;;15.90;97.70;;;;;;5015054;28;20033;-76
2023/03/09 10:15:19;;;;;;;0.85;0.85;;;16.00;97.20;;;;;;5014863;28;20040;-77
2023/03/09 10:17:52;;;;;;;0.10;0.10;;;16.10;97.00;;;;;;5016153;28;20531;-76
2023/03/09 10:20:35;;;;;;;0.20;0.20;;;16.10;96.10;;;;;;5015417;28;20045;-76
2023/03/09 10:23:15;;;;;;;0.10;0.10;;;16.10;97.30;;;;;;4998195;28;20357;-77
2023/03/09 10:25:43;;;;;;;0.10;0.10;;;15.90;97.40;;;;;;5014768;28;20222;-77
2023/03/09 10:28:19;;;;;;;0.20;0.20;;;15.80;97.50;;;;;;5015242;28;20500;-76
2023/03/09 10:31:07;;;;;;;0.20;0.20;;;15.60;99.00;;;;;;5014822;28;20091;-77
2023/03/09 10:33:48;;;;;;;0.10;0.10;;;15.50;99.70;;;;;;5015083;28;20129;-76
2023/03/09 10:36:38;;;;;;;0.15;0.15;;;15.40;99.90;;;;;;5014612;28;20463;-76
2023/03/09 10:39:14;;;;;;;0.20;0.20;;;15.20;99.90;;;;;;5037601;28;20114;-76
2023/03/09 10:41:41;;;;;;;0.10;0.10;;;15.20;99.90;;;;;;5097897;28;20019;-77
2023/03/09 10:44:06;;;;;;;0.10;0.10;;;15.00;99.90;;;;;;5098087;28;20047;-77
2023/03/09 10:47:01;;;;;;;0.10;0.10;;;15.00;99.90;;;;;;5098176;28;20423;-76
2023/03/09 10:49:30;;;;;;;0.10;0.10;;;15.00;99.90;;;;;;5097894;28;20555;-76
2023/03/09 10:52:05;;;;;;;0.10;0.10;;;14.70;99.90;;;;;;5097708;28;20034;-76
2023/03/09 10:54:40;;;;;;;0.10;0.10;;;14.80;99.90;;;;;;5095451;28;20016;-76
2023/03/09 10:57:26;;;;;;;3.03;2.92;;;14.90;99.90;;;;;;5097453;28;20027;-76
2023/03/09 11:00:13;;;;;;;0.20;0.20;;;15.00;99.90;;;;;;5097487;28;20246;-76
2023/03/09 11:02:50;;;;;;;0.20;0.20;;;15.10;99.90;;;;;;5097293;28;20020;-76
2023/03/09 11:05:19;;;;;;;0.20;0.20;;;15.30;99.90;;;;;;5096793;28;20034;-75
2023/03/09 11:07:53;;;;;;;0.10;0.10;;;15.40;99.90;;;;;;5097218;28;20036;-76
2023/03/09 11:10:29;;;;;;;0.20;0.20;;;15.40;99.90;;;;;;5097568;28;20039;-76
2023/03/09 11:12:56;;;;;;;0.20;0.20;;;15.50;99.90;;;;;;5078906;28;20180;-76
2023/03/09 11:15:37;;;;;;;0.40;0.40;;;15.40;99.90;;;;;;5097360;28;20391;-76
2023/03/09 11:18:23;;;;;;;0.10;0.10;;;14.50;99.90;;;;;;5097234;28;20012;-75
2023/03/09 11:20:53;;;;;;;0.20;0.20;;;15.30;99.90;;;;;;5097288;28;20340;-76
2023/03/09 11:23:40;;;;;;;0.10;0.10;;;15.30;99.90;;;;;;5097094;28;20023;-74
2023/03/09 11:26:14;;;;;;;0.20;0.20;;;15.40;99.90;;;;;;5097545;28;20054;-75
2023/03/09 11:28:44;;;;;;;0.10;0.10;;;15.30;99.90;;;;;;5097941;28;20103;-81
2023/03/09 11:31:17;;;;;;;3.45;3.25;;;15.10;99.90;;;;;;5097571;28;20343;-75
2023/03/09 11:33:45;;;;;;;0.15;0.15;;;15.10;99.90;;;;;;5097579;28;20448;-75
2023/03/09 11:36:19;;;;;;;0.10;0.10;;;15.10;99.90;;;;;;5098373;28;20068;-78
2023/03/09 11:38:45;;;;;;;;;;;15.00;99.90;;;;;;5098076;28;20020;-76
2023/03/09 11:41:27;;;;;;;0.20;0.20;;;14.90;99.90;;;;;;5097893;28;19904;-76
2023/03/09 11:44:03;;;;;;;0.13;0.13;;;14.80;99.90;;;;;;5078939;28;20075;-75
2023/03/09 11:46:30;;;;;;;0.20;0.20;;;14.60;99.90;;;;;;5097619;28;20031;-75
2023/03/09 11:49:23;;;;;;;0.10;0.10;;;14.50;99.90;;;;;;5097848;28;20016;-77
2023/03/09 11:51:51;;;;;;;0.10;0.10;;;14.30;99.90;;;;;;5094871;28;20073;-74
2023/03/09 11:54:41;;;;;;;0.20;0.20;;;14.30;99.90;;;;;;5079522;28;20127;-75
2023/03/09 11:57:14;;;;;;;0.63;0.63;;;16.40;99.90;;;;;;5097527;28;20027;-75
2023/03/09 11:59:51;;;;;;;0.20;0.20;;;14.20;99.90;;;;;;5097504;28;20184;-75
2023/03/09 12:02:17;;;;;;;0.20;0.20;;;14.20;99.90;;;;;;5095286;28;20390;-76
2023/03/09 12:04:48;;;;;;;0.10;0.10;;;14.20;99.90;;;;;;5097339;28;20043;-78
2023/03/09 12:07:37;;;;;;;0.10;0.10;;;14.20;99.90;;;;;;5097522;28;20046;-75
2023/03/09 12:10:18;;;;;;;0.15;0.15;;;14.10;99.90;;;;;;5097235;28;20110;-75
2023/03/09 12:12:55;;;;;;;0.10;0.10;;;14.10;99.90;;;;;;5096932;28;20019;-76
2023/03/09 12:15:41;;;;;;;0.15;0.15;;;14.00;99.90;;;;;;5098399;28;20047;-75
2023/03/09 12:18:21;;;;;;;0.10;0.10;;;14.00;99.90;;;;;;5101206;28;20020;-75
2023/03/09 12:20:55;;;;;;;0.10;0.10;;;14.00;99.90;;;;;;5100926;28;20016;-76
2023/03/09 12:23:36;;;;;;;0.20;0.20;;;14.00;99.90;;;;;;5100881;28;20501;-76
2023/03/09 12:26:03;;;;;;;0.10;0.10;;;14.00;99.90;;;;;;5100598;28;20118;-78
2023/03/09 12:28:30;;;;;;;0.10;0.10;;;13.90;99.90;;;;;;5100613;28;20031;-75
2023/03/09 12:30:57;;;;;;;0.28;0.28;;;13.90;99.90;;;;;;5100577;28;20042;-75
2023/03/09 12:33:41;;;;;;;0.10;0.10;;;16.60;99.90;;;;;;5100614;28;20102;-75
2023/03/09 12:36:29;;;;;;;0.13;0.13;;;13.90;99.90;;;;;;5100447;28;20020;-75
2023/03/09 12:39:24;;;;;;;0.20;0.20;;;13.90;99.90;;;;;;5100303;28;20072;-75
2023/03/09 12:42:08;;;;;;;0.20;0.20;;;13.90;99.90;;;;;;5100187;28;20019;-79
2023/03/09 12:44:43;;;;;;;0.10;0.10;;;13.90;99.90;;;;;;5100240;28;20035;-75
2023/03/09 12:47:29;;;;;;;0.20;0.20;;;13.90;99.90;;;;;;5100318;28;20099;-76
2023/03/09 12:49:57;;;;;;;0.20;0.20;;;13.90;99.90;;;;;;5016625;28;20079;-75
2023/03/09 12:53:06;;;;;;;0.20;0.20;;;13.90;99.90;;;;;;5017017;28;20056;-75
2023/03/09 12:55:35;;;;;;;0.10;0.10;;;14.60;99.90;;;;;;5017840;28;20033;-74
2023/03/09 12:58:21;;;;;;;0.17;0.17;;;13.90;99.90;;;;;;5000573;28;20044;-75
2023/03/09 13:01:00;;;;;;;0.15;0.15;;;13.80;99.90;;;;;;5016502;28;20580;-75
2023/03/09 13:03:45;;;;;;;0.10;0.10;;;13.80;99.90;;;;;;4999954;28;20369;-77